Kurashiki, Japan
Current Conditions -  °F | °C
As of 9:00 AM on Sunday 26 Oct 2014 (Local Time) from RJOB Reporting Station
Light Fog Light Fog  
Wind Chill: 61°   Ceiling: 1000
Heat Index: 61°   Visibility: 5mi
Dew Point: 59°   Wind: 2mph
Humidity: 94%   Direction: 70°ENE
Pressure: 30.15"   Gusts: NA
Location:  34.61°N, 133.77°E
Report Text: RJOB 260000Z 07002KT 8000 PRFG FEW000 SCT009 BKN010 16/15 Q1021
Loading
Personal Weather Stations






























Interactive Weather Map
Tropical Storm Tracking
New forecast layout! Learn more

10-Day Weather Forecast

Advertisements
Track Severe Weather on mobile